Time;durP1;ratioP1;P1;durP2;ratioP2;P2;SDS_P1;SDS_P2;PMS_P1;PMS_P2;Temp;Humidity;BMP_temperature;BMP_pressure;BME280_temperature;BME280_humidity;BME280_pressure;Samples;Min_cycle;Max_cycle;Signal;HPM_P1;HPM_P2
2023/06/12 00:04:09;;;;;;;4.67;2.07;;;;;;;16.73;47.68;101250.32;4966969;57;1138662;-64
2023/06/12 00:09:15;;;;;;;7.62;2.25;;;;;;;16.69;48.35;101252.06;4979506;58;1138817;-63
2023/06/12 00:14:20;;;;;;;4.47;2.60;;;;;;;16.63;48.42;101254.83;4959636;58;1138503;-63
2023/06/12 00:19:27;;;;;;;6.70;2.40;;;;;;;16.67;48.81;101250.02;4959851;58;1138516;-64
2023/06/12 00:24:33;;;;;;;7.05;2.17;;;;;;;16.67;48.81;101250.02;4959934;58;1138545;-63
2023/06/12 00:29:39;;;;;;;5.07;2.20;;;;;;;16.66;49.05;101246.51;4979074;58;1138631;-64
2023/06/12 00:34:44;;;;;;;5.77;2.53;;;;;;;16.59;49.39;101252.05;4959876;58;1138621;-63
2023/06/12 00:39:50;;;;;;;8.20;2.60;;;;;;;16.48;49.82;101252.19;4959859;58;1138845;-63
2023/06/12 00:44:55;;;;;;;4.37;2.40;;;;;;;16.40;50.24;101248.86;4979188;57;1138608;-63
2023/06/12 00:50:03;;;;;;;6.47;2.73;;;;;;;16.45;50.24;101259.13;4959672;58;1138721;-63
2023/06/12 00:55:11;;;;;;;6.46;2.70;;;;;;;16.65;50.40;101259.52;4978362;58;1138958;-64
2023/06/12 01:00:19;;;;;;;4.70;2.37;;;;;;;16.74;50.06;101260.52;5033199;57;1138825;-62
2023/06/12 01:05:28;;;;;;;2.42;2.15;;;;;;;16.69;50.15;101260.92;5041453;57;1138996;-64
2023/06/12 01:11:03;;;;;;;5.70;2.62;;;;;;;16.68;50.25;101256.56;4880257;59;1139229;-63
2023/06/12 01:16:07;;;;;;;;;;;;;;;16.76;50.47;101254.55;5064737;57;1138711;-62
2023/06/12 01:21:17;;;;;;;6.73;3.13;;;;;;;16.78;50.45;101256.09;5060385;57;976260;-62
2023/06/12 01:27:00;;;;;;;7.80;2.63;;;;;;;16.73;50.47;101265.50;5041643;57;1136641;-63
2023/06/12 01:32:18;;;;;;;6.47;2.03;;;;;;;16.68;50.76;101261.06;5041975;57;1138938;-63
2023/06/12 01:37:54;;;;;;;4.80;2.70;;;;;;;16.69;50.91;101255.58;5057127;57;1138765;-63
2023/06/12 01:43:01;;;;;;;3.53;2.43;;;;;;;16.64;51.06;101259.68;4960377;57;1138539;-63
2023/06/12 01:48:07;;;;;;;11.33;2.40;;;;;;;16.57;51.07;101261.17;4960169;58;1138487;-62
2023/06/12 01:53:15;;;;;;;3.63;2.97;;;;;;;16.46;51.50;101263.00;4994356;57;1141000;-63
2023/06/12 01:58:21;;;;;;;10.03;2.97;;;;;;;16.43;51.57;101263.77;5042091;57;1138907;-62
2023/06/12 02:03:36;;;;;;;4.15;2.70;;;;;;;16.39;51.91;101264.52;5011065;57;1140849;-63
2023/06/12 02:08:41;;;;;;;10.65;2.77;;;;;;;16.31;52.06;101259.53;4980732;57;1138645;-62
2023/06/12 02:13:49;;;;;;;8.07;2.93;;;;;;;16.24;52.44;101260.56;5061247;57;1140838;-63
2023/06/12 02:18:55;;;;;;;10.87;3.20;;;;;;;16.23;52.58;101259.36;5041788;57;1138536;-62
2023/06/12 02:24:01;;;;;;;4.43;2.67;;;;;;;16.23;52.67;101260.20;5041413;57;1140901;-63
2023/06/12 02:29:16;;;;;;;10.30;3.60;;;;;;;16.11;53.04;101263.48;4970013;58;1138645;-63
2023/06/12 02:34:23;;;;;;;15.03;3.45;;;;;;;16.04;53.26;101258.33;4959775;58;1140722;-62
2023/06/12 02:39:29;;;;;;;12.07;3.25;;;;;;;16.00;53.80;101260.09;4959798;58;1140683;-62
2023/06/12 02:44:36;;;;;;;6.57;3.70;;;;;;;15.96;54.54;101264.00;4959743;58;1140971;-63
2023/06/12 02:49:44;;;;;;;5.77;3.53;;;;;;;15.89;54.48;101262.35;4956537;57;1138606;-62
2023/06/12 02:54:51;;;;;;;6.10;3.27;;;;;;;15.89;54.59;101270.87;5041562;57;1138575;-63
2023/06/12 02:59:57;;;;;;;4.60;3.00;;;;;;;15.94;55.00;101270.80;5041603;57;1138568;-63
2023/06/12 03:05:12;;;;;;;10.93;3.33;;;;;;;15.96;54.79;101268.00;4900749;59;1139126;-63
2023/06/12 03:10:15;;;;;;;21.00;3.60;;;;;;;15.97;54.97;101275.88;4886591;59;1141287;-62
2023/06/12 03:15:24;;;;;;;27.48;4.28;;;;;;;15.93;54.99;101278.94;5044752;57;1140618;-62
2023/06/12 03:20:33;;;;;;;13.80;3.50;;;;;;;15.99;55.34;101281.08;5044516;57;1140906;-63
2023/06/12 03:25:37;;;;;;;10.20;3.30;;;;;;;15.97;55.26;101275.88;5040411;57;1140875;-63
2023/06/12 03:30:42;;;;;;;14.23;3.17;;;;;;;15.95;55.68;101284.50;4970129;57;1140799;-63
2023/06/12 03:35:48;;;;;;;12.43;3.80;;;;;;;15.96;55.69;101285.34;4970269;58;1140876;-62
2023/06/12 03:40:54;;;;;;;8.83;3.37;;;;;;;16.01;56.17;101286.64;4989707;58;1140911;-62
2023/06/12 03:46:00;;;;;;;5.17;3.80;;;;;;;16.01;56.43;101280.46;4989850;57;1138769;-63
2023/06/12 03:51:06;;;;;;;8.70;2.90;;;;;;;15.93;56.66;101288.28;5052306;57;1138482;-63
2023/06/12 03:56:13;;;;;;;8.93;3.77;;;;;;;15.78;57.00;101291.80;5091404;57;1138651;-64
2023/06/12 04:01:19;;;;;;;13.55;3.50;;;;;;;15.62;57.46;101288.77;5052620;57;1138701;-63
2023/06/12 04:06:25;;;;;;;19.02;3.90;;;;;;;15.51;58.02;101288.83;5052067;57;1140998;-63
2023/06/12 04:11:32;;;;;;;7.10;3.53;;;;;;;15.45;58.46;101291.03;4984905;57;1140976;-62
2023/06/12 04:16:38;;;;;;;10.77;3.53;;;;;;;15.43;58.93;101289.47;4989921;57;1138794;-62
2023/06/12 04:21:45;;;;;;;13.57;3.80;;;;;;;15.46;59.57;101286.55;4969666;58;1140901;-63
2023/06/12 04:26:50;;;;;;;11.67;3.47;;;;;;;15.53;60.45;101285.55;4969819;58;1141072;-63
2023/06/12 04:31:57;;;;;;;10.57;3.80;;;;;;;15.57;60.51;101288.34;4989496;58;1140762;-62
2023/06/12 04:37:03;;;;;;;10.80;3.17;;;;;;;15.66;61.97;101296.88;4969877;57;1140665;-63
2023/06/12 04:42:10;;;;;;;7.53;3.77;;;;;;;15.76;61.67;101299.08;4985909;57;1140749;-63
2023/06/12 04:47:16;;;;;;;4.93;3.50;;;;;;;15.82;63.16;101304.74;5063942;57;1138893;-64
2023/06/12 04:52:23;;;;;;;4.87;3.90;;;;;;;15.98;63.72;101310.92;5044400;57;1138813;-63
2023/06/12 04:57:29;;;;;;;21.90;3.93;;;;;;;16.13;63.57;101310.91;5044745;57;1139077;-63
2023/06/12 05:02:35;;;;;;;10.97;4.00;;;;;;;16.31;63.67;101313.77;5049018;57;1140973;-62
2023/06/12 05:07:45;;;;;;;17.30;4.13;;;;;;;16.53;64.21;101315.34;5006635;57;1140581;-63
2023/06/12 05:12:48;;;;;;;13.37;4.57;;;;;;;16.68;63.89;101309.14;4961438;58;1140965;-62
2023/06/12 05:17:54;;;;;;;17.43;4.23;;;;;;;16.85;64.58;101311.97;4960404;58;1140778;-63
2023/06/12 05:23:02;;;;;;;22.67;4.30;;;;;;;17.05;64.50;101318.66;4979927;57;1140872;-63
2023/06/12 05:28:07;;;;;;;8.20;3.93;;;;;;;17.18;64.22;101315.20;4960070;58;1140784;-63
2023/06/12 05:33:16;;;;;;;12.55;3.85;;;;;;;17.40;64.77;101311.38;4977032;58;1138774;-65
2023/06/12 05:38:22;;;;;;;10.05;3.98;;;;;;;17.65;65.03;101320.64;4979874;57;1140675;-64
2023/06/12 05:43:27;;;;;;;5.35;3.42;;;;;;;17.88;64.67;101318.78;4960814;58;1140814;-63
2023/06/12 05:48:35;;;;;;;20.62;4.15;;;;;;;18.15;64.84;101319.32;4960739;58;1138999;-63
2023/06/12 05:53:44;;;;;;;20.60;4.30;;;;;;;18.25;63.91;101318.77;4979877;58;1140742;-63
2023/06/12 05:58:48;;;;;;;24.50;5.03;;;;;;;18.27;63.83;101322.64;4960100;58;1140784;-63
2023/06/12 06:03:54;;;;;;;15.33;4.47;;;;;;;18.26;64.12;101329.83;4963599;57;1140930;-63
2023/06/12 06:09:00;;;;;;;14.53;4.30;;;;;;;18.16;64.66;101334.39;4979742;58;1140768;-63
2023/06/12 06:14:07;;;;;;;10.23;3.90;;;;;;;18.19;65.14;101335.91;4967719;58;1140968;-63
2023/06/12 06:19:14;;;;;;;9.23;4.13;;;;;;;18.42;64.64;101335.03;4970440;58;1140713;-62
2023/06/12 06:24:20;;;;;;;6.27;3.80;;;;;;;18.65;64.44;101341.67;4989910;58;1138735;-63
2023/06/12 06:29:26;;;;;;;12.45;4.92;;;;;;;18.83;64.73;101350.58;4970654;58;1138714;-63
2023/06/12 06:34:31;;;;;;;9.72;4.42;;;;;;;18.97;64.95;101350.54;4970146;57;1140718;-64
2023/06/12 06:39:37;;;;;;;15.00;4.20;;;;;;;19.27;65.06;101343.93;4989893;58;1138670;-63
2023/06/12 06:44:43;;;;;;;15.90;4.33;;;;;;;19.66;64.74;101349.80;4970361;58;1140752;-63
2023/06/12 06:49:49;;;;;;;15.10;4.20;;;;;;;19.91;64.48;101342.23;4970209;58;1140941;-63
2023/06/12 06:54:55;;;;;;;9.55;4.15;;;;;;;20.25;64.70;101346.27;4989752;58;1140929;-63
2023/06/12 07:00:05;;;;;;;54.27;7.62;;;;;;;20.55;64.19;101346.73;4975276;57;1138973;-63
2023/06/12 07:05:09;;;;;;;12.93;3.90;;;;;;;20.78;62.35;101338.91;5051949;57;1140819;-62
2023/06/12 07:10:17;;;;;;;5.57;3.92;;;;;;;20.95;61.67;101338.73;5091758;57;1140940;-64
2023/06/12 07:15:29;;;;;;;7.60;3.42;;;;;;;21.11;58.44;101338.41;5045460;57;1138618;-63
2023/06/12 07:20:30;;;;;;;6.45;3.27;;;;;;;21.26;58.30;101330.88;5040811;57;1138698;-64
2023/06/12 07:25:37;;;;;;;7.93;3.53;;;;;;;21.53;58.83;101326.17;5035522;57;1138633;-63
2023/06/12 07:30:43;;;;;;;9.55;3.05;;;;;;;21.81;57.17;101327.95;4980481;57;1138886;-63
2023/06/12 07:35:49;;;;;;;7.62;3.12;;;;;;;22.05;52.64;101326.55;4959974;58;1138558;-64
2023/06/12 07:40:55;;;;;;;12.40;3.20;;;;;;;22.13;52.58;101325.19;4959635;57;1138765;-63
2023/06/12 07:46:02;;;;;;;7.15;3.70;;;;;;;22.34;53.43;101325.41;4979044;58;1140826;-63
2023/06/12 07:51:08;;;;;;;7.87;4.28;;;;;;;22.51;50.76;101319.94;4959766;58;1138590;-64
2023/06/12 07:56:16;;;;;;;19.75;4.42;;;;;;;22.59;49.67;101316.70;5022017;57;1138643;-64
2023/06/12 08:01:22;;;;;;;10.72;2.72;;;;;;;22.56;49.13;101313.52;5060696;57;1140776;-63
2023/06/12 08:06:29;;;;;;;10.10;2.27;;;;;;;22.35;46.17;101321.70;4879907;59;1141116;-63
2023/06/12 08:11:35;;;;;;;10.30;3.00;;;;;;;22.50;45.07;101312.36;5041399;57;1141000;-64
2023/06/12 08:16:41;;;;;;;8.85;4.42;;;;;;;22.91;44.43;101314.84;4899050;59;1140973;-63
2023/06/12 08:21:48;;;;;;;28.87;2.20;;;;;;;22.93;41.46;101312.77;5041303;57;1138642;-63
2023/06/12 08:26:54;;;;;;;5.62;2.22;;;;;;;23.07;37.12;101311.98;5023614;57;1140715;-63
2023/06/12 08:32:00;;;;;;;3.25;2.00;;;;;;;23.38;38.96;101299.73;4979017;58;1138870;-64
2023/06/12 08:37:06;;;;;;;6.15;2.35;;;;;;;23.56;37.28;101294.86;4959226;58;1138816;-64
2023/06/12 08:42:18;;;;;;;5.25;2.02;;;;;;;23.77;34.02;101292.28;4959479;58;1138920;-64
2023/06/12 08:47:23;;;;;;;5.18;1.82;;;;;;;23.71;33.05;101281.37;4979371;58;1138750;-64
2023/06/12 08:52:30;;;;;;;5.95;2.77;;;;;;;23.82;35.50;101273.66;4959903;57;1138635;-64
2023/06/12 08:57:41;;;;;;;3.80;1.77;;;;;;;23.99;30.85;101284.23;4960131;58;1138741;-64
2023/06/12 09:02:56;;;;;;;1.77;1.55;;;;;;;23.91;29.28;101282.48;5028944;57;1138722;-63
2023/06/12 09:08:06;;;;;;;2.10;1.80;;;;;;;24.02;29.38;101287.41;5041408;57;1138596;-64
2023/06/12 09:13:12;;;;;;;4.85;2.10;;;;;;;24.13;30.50;101275.30;5041040;57;1138560;-64
2023/06/12 09:18:20;;;;;;;11.10;1.72;;;;;;;24.35;30.37;101270.28;5062695;57;1258764;-63
2023/06/12 09:23:26;;;;;;;5.75;1.77;;;;;;;24.56;27.73;101266.77;5033862;57;1140845;-64
2023/06/12 09:28:36;;;;;;;9.96;2.38;;;;;;;24.65;27.60;101273.72;4967675;58;1138577;-63
2023/06/12 09:33:42;;;;;;;3.17;1.80;;;;;;;24.69;27.87;101266.06;4985116;58;1138603;-63
2023/06/12 09:38:50;;;;;;;18.10;2.40;;;;;;;24.74;27.49;101254.16;4965587;58;1138882;-63
2023/06/12 09:44:03;;;;;;;3.22;2.85;;;;;;;24.92;25.17;101246.39;4965162;58;1140891;-64
2023/06/12 09:49:13;;;;;;;5.42;1.52;;;;;;;24.84;25.68;101247.89;4989034;57;1138644;-64
2023/06/12 09:54:21;;;;;;;24.05;2.47;;;;;;;24.87;25.23;101249.70;4970780;57;1138971;-63
2023/06/12 09:59:31;;;;;;;11.88;1.90;;;;;;;25.07;27.37;101240.92;4970567;58;1140871;-65
2023/06/12 10:04:50;;;;;;;10.70;1.42;;;;;;;25.28;27.88;101231.92;5050873;57;1140935;-64
2023/06/12 10:09:57;;;;;;;3.30;1.35;;;;;;;25.44;25.88;101233.80;5060583;57;1140822;-64
2023/06/12 10:15:08;;;;;;;9.00;1.72;;;;;;;25.52;26.61;101228.73;5028679;57;1138898;-64
2023/06/12 10:20:14;;;;;;;3.02;1.20;;;;;;;25.75;28.01;101212.23;5025598;57;1138856;-63
2023/06/12 10:25:22;;;;;;;5.34;1.74;;;;;;;26.01;25.79;101221.81;5031776;57;1138802;-66
2023/06/12 10:30:27;;;;;;;6.50;1.70;;;;;;;25.98;24.96;101218.15;4965189;57;1138695;-63
2023/06/12 10:35:33;;;;;;;4.90;1.37;;;;;;;25.93;23.72;101215.23;4972919;58;1138695;-65
2023/06/12 10:40:39;;;;;;;5.28;1.60;;;;;;;25.91;24.99;101214.08;4953462;58;1138919;-63
2023/06/12 10:45:52;;;;;;;6.62;1.55;;;;;;;26.02;23.23;101200.45;4934369;57;1138634;-65
2023/06/12 10:50:58;;;;;;;;;;;;;;;26.07;25.33;101195.78;4938549;57;1138835;-64
2023/06/12 10:56:08;;;;;;;10.63;2.37;;;;;;;26.18;24.73;101203.31;5008481;57;976037;-64
2023/06/12 11:01:19;;;;;;;9.95;2.00;;;;;;;26.25;23.21;101190.63;4972197;57;1138691;-65
2023/06/12 11:06:28;;;;;;;9.50;1.98;;;;;;;26.33;23.41;101196.39;4971828;58;1138578;-64
2023/06/12 11:11:33;;;;;;;56.70;4.37;;;;;;;26.37;24.48;101187.64;4972245;58;1138886;-64
2023/06/12 11:16:45;;;;;;;7.67;1.90;;;;;;;26.52;23.40;101178.80;5021534;57;1140684;-64
2023/06/12 11:21:51;;;;;;;6.03;2.08;;;;;;;26.65;24.08;101178.48;5049973;57;1138806;-64
2023/06/12 11:27:00;;;;;;;5.15;1.70;;;;;;;26.58;21.78;101166.28;5039922;57;1138803;-64
2023/06/12 11:32:05;;;;;;;4.78;1.50;;;;;;;26.52;22.71;101161.67;4898975;59;1138758;-64
2023/06/12 11:37:17;;;;;;;9.60;2.45;;;;;;;26.59;22.97;101139.44;5040994;57;1138775;-65
2023/06/12 11:42:23;;;;;;;4.80;1.67;;;;;;;26.55;22.03;101144.99;5036293;57;1138661;-64
2023/06/12 11:47:29;;;;;;;3.10;1.70;;;;;;;26.57;23.13;101141.03;5021951;57;1138899;-63
2023/06/12 11:52:38;;;;;;;8.95;2.22;;;;;;;26.68;23.04;101144.15;5042297;57;1138739;-64
2023/06/12 11:57:49;;;;;;;2.90;1.92;;;;;;;26.65;22.11;101130.99;5022320;57;1138805;-64
2023/06/12 12:03:01;;;;;;;6.07;1.70;;;;;;;26.71;22.42;101126.09;5034629;57;1138656;-64
2023/06/12 12:08:08;;;;;;;9.05;1.77;;;;;;;26.87;22.70;101121.07;5061134;57;1138765;-64
2023/06/12 12:13:14;;;;;;;8.08;1.60;;;;;;;26.92;22.15;101119.05;5005870;57;1138508;-65
2023/06/12 12:18:20;;;;;;;11.18;2.40;;;;;;;26.96;23.54;101108.96;4959772;58;1139126;-65
2023/06/12 12:23:26;;;;;;;16.55;1.87;;;;;;;26.95;22.32;101107.30;4978822;58;1140830;-64
2023/06/12 12:28:32;;;;;;;3.60;1.50;;;;;;;26.99;22.14;101103.64;4959085;58;1140654;-64
2023/06/12 12:33:37;;;;;;;4.95;1.55;;;;;;;27.02;21.30;101107.81;4959535;58;1138609;-65
2023/06/12 12:38:43;;;;;;;4.37;1.75;;;;;;;27.00;20.99;101096.33;4979012;58;1138897;-64
2023/06/12 12:43:48;;;;;;;4.35;1.32;;;;;;;27.01;22.08;101092.56;4992141;57;1138686;-64
2023/06/12 12:48:54;;;;;;;6.75;1.60;;;;;;;27.25;22.47;101084.54;5022704;57;1138565;-64
2023/06/12 12:54:00;;;;;;;8.40;1.55;;;;;;;27.45;21.80;101075.48;5042030;57;1138479;-64
2023/06/12 12:59:09;;;;;;;15.70;1.77;;;;;;;27.48;22.04;101060.95;5022296;57;1138916;-65
2023/06/12 13:04:15;;;;;;;3.12;1.80;;;;;;;27.64;22.66;101059.12;5034812;57;1140861;-66
2023/06/12 13:09:21;;;;;;;5.47;2.10;;;;;;;27.84;22.41;101051.34;5027031;57;1138619;-65
2023/06/12 13:14:27;;;;;;;11.40;1.75;;;;;;;27.94;21.01;101063.95;5008379;57;1138580;-64
2023/06/12 13:19:33;;;;;;;4.25;1.70;;;;;;;27.71;20.98;101050.91;4959280;57;1141105;-66
2023/06/12 13:24:39;;;;;;;20.37;3.22;;;;;;;27.70;21.76;101037.01;4979543;58;1138580;-64
2023/06/12 13:29:45;;;;;;;5.65;1.52;;;;;;;27.79;21.63;101032.99;4970363;57;1141008;-65
2023/06/12 13:34:50;;;;;;;5.22;1.70;;;;;;;27.87;22.33;101032.72;4970487;57;1138585;-64
2023/06/12 13:39:56;;;;;;;4.58;1.90;;;;;;;28.05;22.14;101027.88;4990253;58;1138616;-65
2023/06/12 13:45:04;;;;;;;6.97;2.50;;;;;;;28.20;22.48;101023.50;4970618;58;1138592;-64
2023/06/12 13:50:10;;;;;;;10.53;2.50;;;;;;;28.16;20.66;101031.23;4970965;58;1138509;-65
2023/06/12 13:55:16;;;;;;;6.35;1.60;;;;;;;27.95;22.13;101031.62;4989907;58;1140674;-65
2023/06/12 14:00:23;;;;;;;6.70;1.70;;;;;;;28.04;21.77;101021.30;4981102;57;1138791;-65
2023/06/12 14:05:28;;;;;;;12.88;4.85;;;;;;;28.14;22.61;101019.73;5021604;57;1138646;-64
2023/06/12 14:10:36;;;;;;;14.05;2.30;;;;;;;28.27;20.17;101012.02;4971121;57;1140667;-64
2023/06/12 14:15:42;;;;;;;8.90;3.10;;;;;;;28.22;21.74;101007.27;5007404;57;1140759;-66
2023/06/12 14:20:48;;;;;;;6.12;2.35;;;;;;;28.26;20.82;100998.14;5052229;57;1138644;-65
2023/06/12 14:25:53;;;;;;;4.20;2.08;;;;;;;28.04;19.58;101003.63;5052214;57;1138623;-65
2023/06/12 14:30:59;;;;;;;1.98;1.85;;;;;;;27.91;20.49;100995.05;5074075;57;1138708;-66
2023/06/12 14:36:06;;;;;;;7.60;1.62;;;;;;;27.83;21.12;100995.30;5054569;57;1138638;-64
2023/06/12 14:41:11;;;;;;;3.20;1.72;;;;;;;28.01;22.51;100994.02;5054644;57;1138557;-64
2023/06/12 14:46:18;;;;;;;4.22;3.62;;;;;;;28.12;21.38;100997.36;4992523;58;1138584;-65
2023/06/12 14:51:23;;;;;;;6.53;1.80;;;;;;;28.07;21.12;100995.86;4972540;58;1138657;-66
2023/06/12 14:56:29;;;;;;;12.15;1.70;;;;;;;28.10;20.90;100994.59;4972546;58;1138619;-65
2023/06/12 15:01:34;;;;;;;7.03;2.00;;;;;;;28.12;21.93;100992.45;4968336;57;1140751;-65
2023/06/12 15:06:40;;;;;;;43.77;3.30;;;;;;;28.19;21.20;100973.70;4990934;58;1138813;-64
2023/06/12 15:11:46;;;;;;;6.87;2.40;;;;;;;28.23;21.57;100970.02;4971255;56;1140821;-64
2023/06/12 15:16:52;;;;;;;9.38;2.62;;;;;;;28.03;20.00;100967.44;4935986;58;1138693;-64
2023/06/12 15:21:57;;;;;;;9.20;2.65;;;;;;;27.78;21.13;100962.53;4911388;59;1138563;-66
2023/06/12 15:27:03;;;;;;;10.03;2.35;;;;;;;27.79;20.71;100969.64;4949999;58;1138855;-65
2023/06/12 15:32:10;;;;;;;12.45;2.87;;;;;;;27.78;20.20;100961.17;5020895;57;1141007;-65
2023/06/12 15:37:18;;;;;;;3.80;1.82;;;;;;;27.74;20.67;100959.95;5059993;57;1141120;-65
2023/06/12 15:42:24;;;;;;;24.20;2.47;;;;;;;27.84;21.62;100958.38;5026295;57;1138713;-65
2023/06/12 15:47:30;;;;;;;12.28;3.35;;;;;;;27.82;20.98;100956.41;4969854;58;1140592;-65
2023/06/12 15:52:35;;;;;;;8.08;3.40;;;;;;;27.78;20.99;100953.85;4970487;58;1140910;-65
2023/06/12 15:57:41;;;;;;;12.23;2.60;;;;;;;27.74;20.62;100945.00;4989450;58;1138864;-65
2023/06/12 16:02:47;;;;;;;7.45;2.50;;;;;;;27.71;20.84;100945.43;5011693;56;1140844;-65
2023/06/12 16:07:52;;;;;;;15.35;5.75;;;;;;;27.55;20.46;100944.88;4978802;57;1138776;-65
2023/06/12 16:12:58;;;;;;;4.20;2.47;;;;;;;27.40;20.32;100938.93;4989456;57;1140919;-65
2023/06/12 16:18:05;;;;;;;13.62;5.47;;;;;;;27.36;20.67;100945.84;4969871;57;1138579;-65
2023/06/12 16:23:12;;;;;;;6.53;2.20;;;;;;;27.28;20.62;100944.23;4965996;57;1140710;-66
2023/06/12 16:28:18;;;;;;;11.63;6.12;;;;;;;27.33;21.65;100942.75;4989482;57;1138729;-67
2023/06/12 16:33:23;;;;;;;16.13;3.20;;;;;;;27.27;20.04;100946.64;4997610;57;1169469;-64
2023/06/12 16:38:29;;;;;;;10.10;4.80;;;;;;;27.11;20.05;100941.72;5022089;57;1141076;-63
2023/06/12 16:43:35;;;;;;;6.35;3.20;;;;;;;27.04;20.78;100944.17;4992480;57;1141141;-64
2023/06/12 16:48:41;;;;;;;6.40;2.20;;;;;;;26.98;20.31;100940.95;4979110;57;1138813;-64
2023/06/12 16:53:46;;;;;;;28.87;3.80;;;;;;;26.87;20.99;100941.09;4982668;57;1138969;-65
2023/06/12 16:58:52;;;;;;;10.95;2.20;;;;;;;26.89;21.48;100941.67;5035861;57;1140821;-65
2023/06/12 17:03:58;;;;;;;11.75;2.25;;;;;;;26.84;21.25;100941.51;5059474;57;1140762;-64
2023/06/12 17:09:06;;;;;;;16.27;2.72;;;;;;;26.78;20.54;100946.42;5041017;57;1140716;-65
2023/06/12 17:14:12;;;;;;;3.30;2.02;;;;;;;26.73;20.91;100941.66;4880077;59;1140680;-64
2023/06/12 17:19:17;;;;;;;14.00;2.90;;;;;;;26.69;21.25;100937.70;5043689;57;1138626;-64
2023/06/12 17:24:23;;;;;;;31.17;3.90;;;;;;;26.61;21.30;100939.28;5021979;57;1179832;-64
2023/06/12 17:29:29;;;;;;;9.35;2.67;;;;;;;26.47;20.87;100934.95;5002221;57;1184850;-65
2023/06/12 17:34:36;;;;;;;9.65;2.90;;;;;;;26.34;21.69;100924.97;5022775;57;1138735;-64
2023/06/12 17:39:41;;;;;;;6.03;2.12;;;;;;;26.22;22.10;100931.54;5014730;57;1138989;-65
2023/06/12 17:44:47;;;;;;;12.83;2.73;;;;;;;26.13;22.80;100929.23;4960181;57;1138394;-65
2023/06/12 17:49:53;;;;;;;20.62;3.30;;;;;;;26.02;22.75;100926.66;4959453;57;1140505;-64
2023/06/12 17:54:59;;;;;;;9.38;2.30;;;;;;;25.95;22.82;100928.55;4979071;58;1140717;-64
2023/06/12 18:00:05;;;;;;;9.48;2.70;;;;;;;25.85;22.91;100925.41;4965724;57;1138560;-64
2023/06/12 18:05:11;;;;;;;13.60;2.50;;;;;;;25.76;23.26;100924.80;5041057;57;1138778;-64
2023/06/12 18:10:17;;;;;;;15.30;2.10;;;;;;;25.70;23.50;100926.98;4897849;59;1237338;-65
2023/06/12 18:15:27;;;;;;;12.58;3.12;;;;;;;25.64;24.05;100925.12;5039673;57;1245295;-64
2023/06/12 18:20:33;;;;;;;7.80;3.17;;;;;;;25.53;24.24;100924.32;5039997;57;1234116;-65
2023/06/12 18:25:39;;;;;;;5.60;3.07;;;;;;;25.40;24.27;100929.20;5038562;57;1241493;-64
2023/06/12 18:30:45;;;;;;;13.32;3.62;;;;;;;25.25;24.49;100925.84;5061760;57;1139316;-65
2023/06/12 18:35:51;;;;;;;14.63;2.92;;;;;;;25.15;25.04;100922.71;5002815;57;1248127;-63
2023/06/12 18:40:56;;;;;;;29.57;3.45;;;;;;;25.01;25.00;100924.55;4958356;57;1244526;-64
2023/06/12 18:46:02;;;;;;;16.20;2.70;;;;;;;24.65;25.66;100925.30;4996696;57;1245966;-64
2023/06/12 18:51:08;;;;;;;13.48;2.55;;;;;;;24.65;25.66;100925.30;5038977;57;1252509;-64
2023/06/12 18:56:13;;;;;;;16.30;2.65;;;;;;;24.48;25.86;100924.27;5037626;57;1252691;-64
2023/06/12 19:01:21;;;;;;;32.42;3.35;;;;;;;24.33;26.09;100920.86;5058117;57;1255153;-65
2023/06/12 19:06:33;;;;;;;12.33;2.75;;;;;;;24.17;26.36;100924.67;5039412;57;1254181;-63
2023/06/12 19:11:34;;;;;;;48.52;5.67;;;;;;;24.00;26.75;100936.81;5038682;57;1252222;-64
2023/06/12 19:16:39;;;;;;;9.10;2.97;;;;;;;23.85;28.04;100934.20;5039904;57;1237154;-63
2023/06/12 19:21:45;;;;;;;11.00;6.62;;;;;;;23.60;29.15;100937.01;5061661;57;1138745;-64
2023/06/12 19:26:51;;;;;;;16.27;4.05;;;;;;;23.46;28.92;100944.12;5039143;57;1246743;-65
2023/06/12 19:31:56;;;;;;;13.62;4.08;;;;;;;23.33;29.25;100943.98;5006568;57;1256203;-64
2023/06/12 19:37:02;;;;;;;32.67;12.53;;;;;;;23.21;29.42;100946.04;4978554;57;1244869;-64
2023/06/12 19:42:10;;;;;;;85.30;33.58;;;;;;;23.14;29.46;100954.05;4972620;56;1142926;-63
2023/06/12 19:47:15;;;;;;;44.25;20.00;;;;;;;23.05;29.88;100955.20;4972441;56;1143233;-64
2023/06/12 19:52:21;;;;;;;22.42;9.88;;;;;;;22.96;31.05;100951.76;4991963;56;1142835;-63
2023/06/12 19:57:26;;;;;;;11.15;5.03;;;;;;;22.83;31.48;100952.11;4972773;56;1140848;-64
2023/06/12 20:02:32;;;;;;;12.33;3.22;;;;;;;22.57;32.07;100953.92;4968756;56;1253990;-64
2023/06/12 20:07:37;;;;;;;11.00;2.35;;;;;;;22.32;32.53;100953.34;4972219;58;1172698;-63
2023/06/12 20:12:43;;;;;;;21.80;6.37;;;;;;;22.13;32.69;100949.34;4992098;58;1140802;-64
2023/06/12 20:17:50;;;;;;;14.18;4.83;;;;;;;21.96;33.28;100948.63;4972416;58;1140635;-65
2023/06/12 20:22:59;;;;;;;7.95;4.08;;;;;;;21.72;33.70;100954.21;4971893;58;1140831;-65
2023/06/12 20:28:02;;;;;;;9.30;2.60;;;;;;;21.43;34.47;100952.75;4992221;58;1138730;-65
2023/06/12 20:33:08;;;;;;;3.60;2.37;;;;;;;21.23;35.12;100947.86;4972676;56;1138732;-63
2023/06/12 20:38:14;;;;;;;10.18;3.62;;;;;;;21.13;34.82;100953.08;4971033;57;1223921;-64
2023/06/12 20:43:20;;;;;;;9.98;5.15;;;;;;;21.06;34.69;100955.66;5054763;57;1177103;-64
2023/06/12 20:48:25;;;;;;;13.45;5.62;;;;;;;20.98;34.36;100947.62;5041178;57;1138983;-64
2023/06/12 20:53:32;;;;;;;16.14;4.04;;;;;;;20.95;34.34;100943.42;5058581;57;1140892;-66
2023/06/12 20:58:38;;;;;;;9.28;4.17;;;;;;;20.87;34.28;100946.16;5041670;57;1141024;-64
2023/06/12 21:03:44;;;;;;;12.18;3.40;;;;;;;20.70;34.33;100939.19;5060235;57;1138805;-63
2023/06/12 21:08:59;;;;;;;14.50;4.92;;;;;;;20.60;34.49;100935.88;5041242;57;1140704;-64
2023/06/12 21:14:12;;;;;;;7.97;3.37;;;;;;;20.44;34.64;100943.48;5041170;57;1140779;-64
2023/06/12 21:19:17;;;;;;;4.67;2.20;;;;;;;20.24;34.95;100941.65;5043810;57;1138548;-64
2023/06/12 21:24:23;;;;;;;3.67;2.55;;;;;;;20.08;35.12;100940.34;4999057;57;1138659;-64
2023/06/12 21:29:30;;;;;;;5.83;2.60;;;;;;;19.92;35.17;100932.30;4959711;58;1138575;-63
2023/06/12 21:34:35;;;;;;;7.17;3.23;;;;;;;19.82;34.94;100940.54;4975893;57;1138793;-64
2023/06/12 21:39:41;;;;;;;3.75;2.40;;;;;;;19.84;35.46;100937.69;5061311;57;1138693;-64
2023/06/12 21:44:46;;;;;;;3.25;2.05;;;;;;;19.66;35.64;100931.15;5041772;57;1138633;-64
2023/06/12 21:49:52;;;;;;;4.35;2.58;;;;;;;19.55;36.12;100926.13;5042088;57;1138422;-64
2023/06/12 21:54:58;;;;;;;4.20;2.60;;;;;;;19.42;36.74;100929.24;5061863;57;1138415;-64
2023/06/12 22:00:05;;;;;;;2.40;1.87;;;;;;;19.22;37.76;100928.73;5040675;57;1138582;-64
2023/06/12 22:05:12;;;;;;;5.85;2.42;;;;;;;19.04;38.27;100921.81;5040821;57;1138748;-64
2023/06/12 22:10:18;;;;;;;7.17;2.47;;;;;;;18.88;39.33;100926.13;5061933;57;1138623;-64
2023/06/12 22:15:23;;;;;;;6.58;2.58;;;;;;;18.81;40.33;100921.06;5038915;57;1138588;-64
2023/06/12 22:20:29;;;;;;;6.72;2.75;;;;;;;18.74;39.97;100920.55;5000978;57;1138680;-64
2023/06/12 22:25:35;;;;;;;7.00;1.97;;;;;;;18.72;40.17;100918.53;4960806;57;1138798;-64
2023/06/12 22:30:41;;;;;;;3.77;2.33;;;;;;;18.69;40.51;100912.99;4993527;57;1138719;-63
2023/06/12 22:35:47;;;;;;;4.67;2.10;;;;;;;18.61;40.60;100909.80;5041781;57;1138542;-64
2023/06/12 22:40:53;;;;;;;10.55;2.62;;;;;;;18.58;40.79;100903.41;5041745;57;1138761;-63
2023/06/12 22:45:58;;;;;;;5.22;2.22;;;;;;;18.53;41.21;100898.16;5061497;57;1140747;-63
2023/06/12 22:51:05;;;;;;;6.12;2.40;;;;;;;18.51;41.62;100892.12;5041671;57;1138673;-64
2023/06/12 22:56:11;;;;;;;5.58;2.70;;;;;;;18.36;41.83;100883.86;5041651;57;1138902;-64
2023/06/12 23:01:16;;;;;;;4.37;2.60;;;;;;;18.30;42.38;100885.85;5061385;57;1138666;-64
2023/06/12 23:06:25;;;;;;;6.00;2.42;;;;;;;18.13;42.86;100893.45;5041592;57;1138562;-63
2023/06/12 23:11:29;;;;;;;5.22;2.60;;;;;;;17.99;43.58;100882.00;4880652;59;1138724;-63